createdAt,value
2023-05-11T00:00:08.113Z,5.60
2023-05-11T00:05:11.040Z,5.78
2023-05-11T00:10:15.204Z,5.78
2023-05-11T00:15:17.999Z,5.75
2023-05-11T00:20:21.915Z,5.40
2023-05-11T00:25:26.146Z,5.28
2023-05-11T00:30:28.870Z,5.80
2023-05-11T00:35:31.889Z,5.50
2023-05-11T00:40:35.927Z,6.05
2023-05-11T00:45:39.900Z,5.22
2023-05-11T00:50:42.893Z,5.53
2023-05-11T00:55:46.946Z,4.85
2023-05-11T01:00:49.651Z,5.40
2023-05-11T01:06:06.904Z,5.07
2023-05-11T01:11:16.633Z,5.60
2023-05-11T01:16:21.453Z,5.85
2023-05-11T01:21:24.661Z,6.00
2023-05-11T01:26:50.179Z,5.38
2023-05-11T01:31:57.212Z,5.53
2023-05-11T01:37:06.027Z,5.30
2023-05-11T01:42:10.803Z,5.45
2023-05-11T01:47:16.936Z,5.70
2023-05-11T01:52:21.572Z,5.60
2023-05-11T01:57:25.857Z,4.88
2023-05-11T02:02:30.869Z,5.97
2023-05-11T02:07:35.423Z,5.47
2023-05-11T02:12:39.870Z,5.43
2023-05-11T02:17:44.842Z,5.70
2023-05-11T02:22:48.374Z,5.37
2023-05-11T02:27:51.548Z,4.90
2023-05-11T02:32:57.709Z,5.60
2023-05-11T02:38:03.137Z,5.67
2023-05-11T02:43:11.090Z,5.80
2023-05-11T02:48:22.375Z,5.60
2023-05-11T02:53:28.521Z,6.00
2023-05-11T02:58:31.281Z,5.90
2023-05-11T03:03:35.522Z,5.93
2023-05-11T03:08:38.531Z,5.47
2023-05-11T03:13:42.294Z,5.70
2023-05-11T03:18:47.000Z,5.53
2023-05-11T03:23:50.328Z,5.57
2023-05-11T03:28:54.211Z,4.90
2023-05-11T03:33:58.475Z,4.97
2023-05-11T03:39:02.709Z,5.10
2023-05-11T03:44:07.436Z,4.77
2023-05-11T03:49:13.563Z,5.23
2023-05-11T03:54:16.649Z,4.80
2023-05-11T03:59:19.921Z,5.00
2023-05-11T04:04:29.517Z,4.88
2023-05-11T04:09:32.295Z,4.90
2023-05-11T04:14:34.940Z,4.55
2023-05-11T04:19:38.894Z,4.40
2023-05-11T04:24:41.536Z,4.50
2023-05-11T04:29:44.954Z,3.65
2023-05-11T04:34:48.912Z,4.50
2023-05-11T04:39:51.565Z,4.60
2023-05-11T04:44:55.138Z,4.20
2023-05-11T04:49:59.111Z,4.55
2023-05-11T04:55:01.938Z,4.30
2023-05-11T05:00:05.628Z,4.35
2023-05-11T05:05:10.740Z,4.00
2023-05-11T05:10:13.473Z,3.92
2023-05-11T05:15:16.316Z,4.13
2023-05-11T05:20:20.590Z,3.30
2023-05-11T05:25:23.426Z,3.95
2023-05-11T05:30:26.365Z,3.58
2023-05-11T05:35:30.397Z,3.28
2023-05-11T05:40:37.195Z,2.92
2023-05-11T05:45:39.871Z,3.03
2023-05-11T05:50:43.954Z,2.53
2023-05-11T05:55:46.623Z,2.72
2023-05-11T06:00:50.409Z,2.67
2023-05-11T06:05:54.466Z,4.20
2023-05-11T06:10:57.157Z,2.45
2023-05-11T06:15:59.912Z,3.20
2023-05-11T06:21:04.094Z,2.33
2023-05-11T06:26:06.765Z,2.40
2023-05-11T06:31:09.798Z,2.58
2023-05-11T06:36:14.167Z,2.65
2023-05-11T06:41:16.972Z,2.42
2023-05-11T06:46:19.787Z,2.70
2023-05-11T06:51:24.097Z,2.60
2023-05-11T06:56:27.738Z,2.65
2023-05-11T07:01:31.614Z,2.38
2023-05-11T07:06:36.081Z,2.53
2023-05-11T07:11:39.334Z,2.45
2023-05-11T07:16:42.215Z,2.42
2023-05-11T07:21:46.260Z,2.33
2023-05-11T07:26:50.026Z,2.40
2023-05-11T07:31:52.734Z,2.17
2023-05-11T07:36:56.785Z,2.65
2023-05-11T07:41:59.532Z,2.35
2023-05-11T07:47:02.564Z,2.50
2023-05-11T07:52:06.588Z,2.45
2023-05-11T07:57:11.237Z,2.10
2023-05-11T08:02:14.768Z,2.28
2023-05-11T08:07:18.779Z,2.55
2023-05-11T08:12:21.466Z,2.10
2023-05-11T08:17:24.184Z,2.08
2023-05-11T08:22:28.228Z,1.85
2023-05-11T08:27:30.892Z,2.50
2023-05-11T08:32:46.670Z,2.10
2023-05-11T08:37:58.471Z,1.80
2023-05-11T08:43:01.792Z,1.90
2023-05-11T08:48:05.098Z,2.33
2023-05-11T08:53:09.189Z,2.20
2023-05-11T08:58:15.162Z,2.65
2023-05-11T09:03:19.492Z,2.00
2023-05-11T09:08:24.727Z,2.00
2023-05-11T09:13:27.826Z,1.88
2023-05-11T09:18:30.774Z,2.25
2023-05-11T09:23:34.841Z,1.80
2023-05-11T09:28:45.807Z,1.30
2023-05-11T09:33:48.934Z,1.73
2023-05-11T09:38:57.286Z,1.70
2023-05-11T09:44:06.342Z,1.55
2023-05-11T09:49:09.809Z,1.63
2023-05-11T09:54:22.029Z,1.60
2023-05-11T09:59:38.803Z,1.55
2023-05-11T10:04:41.616Z,1.30
2023-05-11T10:09:46.425Z,1.40
2023-05-11T10:14:50.333Z,1.40
2023-05-11T10:19:56.153Z,1.25
2023-05-11T10:25:00.694Z,1.15
2023-05-11T10:30:04.973Z,1.48
2023-05-11T10:35:08.549Z,1.08
2023-05-11T10:40:12.951Z,1.08
2023-05-11T10:45:21.501Z,1.65
2023-05-11T10:50:43.352Z,1.35
2023-05-11T10:56:03.273Z,1.20
2023-05-11T11:01:31.891Z,1.45
2023-05-11T11:06:36.486Z,1.33
2023-05-11T11:11:42.644Z,1.80
2023-05-11T11:17:27.277Z,1.77
2023-05-11T11:22:47.811Z,1.30
2023-05-11T11:27:59.829Z,1.48
2023-05-11T11:33:37.284Z,1.35
2023-05-11T11:38:57.932Z,1.50
2023-05-11T11:44:02.030Z,1.58
2023-05-11T11:49:09.108Z,1.55
2023-05-11T11:54:12.223Z,1.63
2023-05-11T11:59:16.695Z,1.63
2023-05-11T12:04:39.593Z,1.63
2023-05-11T12:09:42.397Z,1.80
2023-05-11T12:14:49.277Z,1.75
2023-05-11T12:19:52.283Z,1.80
2023-05-11T12:25:00.318Z,1.52
2023-05-11T12:30:05.020Z,1.35
2023-05-11T12:35:08.490Z,1.50
2023-05-11T12:40:12.979Z,1.65
2023-05-11T12:45:17.409Z,1.70
2023-05-11T12:50:21.623Z,1.52
2023-05-11T12:55:29.130Z,1.70
2023-05-11T13:00:33.568Z,1.48
2023-05-11T13:05:36.577Z,1.58
2023-05-11T13:10:39.230Z,2.15
2023-05-11T13:15:52.840Z,1.50
2023-05-11T13:21:06.676Z,1.30
2023-05-11T13:26:09.439Z,1.40
2023-05-11T13:31:13.666Z,1.60
2023-05-11T13:36:16.498Z,1.67
2023-05-11T13:41:19.148Z,1.40
2023-05-11T13:46:23.184Z,1.40
2023-05-11T13:51:25.876Z,1.27
2023-05-11T13:56:28.894Z,1.50
2023-05-11T14:01:33.071Z,1.35
2023-05-11T14:06:36.275Z,1.13
2023-05-11T14:11:39.750Z,1.30
2023-05-11T14:16:43.941Z,1.77
2023-05-11T14:21:46.669Z,1.45
2023-05-11T14:26:49.533Z,1.23
2023-05-11T14:31:53.709Z,1.38
2023-05-11T14:36:57.750Z,1.38
2023-05-11T14:42:00.397Z,1.27
2023-05-11T14:47:05.269Z,1.45
2023-05-11T14:52:08.193Z,1.17
2023-05-11T14:57:10.862Z,0.90
2023-05-11T15:02:14.862Z,1.35
2023-05-11T15:07:17.762Z,1.60
2023-05-11T15:12:20.560Z,1.10
2023-05-11T15:17:24.575Z,1.50
2023-05-11T15:22:27.507Z,1.40
2023-05-11T15:27:30.257Z,1.40
2023-05-11T15:32:34.422Z,1.40
2023-05-11T15:37:37.153Z,1.33
2023-05-11T15:42:40.178Z,1.23
2023-05-11T15:47:44.211Z,1.40
2023-05-11T15:52:46.950Z,1.30
2023-05-11T15:57:49.704Z,1.45
2023-05-11T16:02:53.769Z,1.40
2023-05-11T16:07:56.479Z,1.60
2023-05-11T16:12:59.286Z,1.52
2023-05-11T16:18:05.135Z,1.60
2023-05-11T16:23:08.227Z,1.65
2023-05-11T16:28:10.918Z,1.30
2023-05-11T16:33:15.060Z,1.58
2023-05-11T16:38:18.179Z,1.25
2023-05-11T16:43:20.823Z,1.52
2023-05-11T16:48:32.845Z,1.38
2023-05-11T16:53:35.518Z,1.35
2023-05-11T16:58:38.217Z,1.58
2023-05-11T17:03:42.322Z,1.60
2023-05-11T17:08:46.484Z,1.60
2023-05-11T17:13:49.201Z,1.30
2023-05-11T17:18:53.294Z,1.50
2023-05-11T17:23:56.144Z,1.50
2023-05-11T17:28:59.337Z,1.42
2023-05-11T17:34:03.466Z,1.80
2023-05-11T17:39:06.306Z,1.50
2023-05-11T17:44:09.144Z,1.60
2023-05-11T17:49:13.452Z,1.33
2023-05-11T17:54:16.092Z,1.70
2023-05-11T17:59:20.526Z,1.58
2023-05-11T18:04:25.305Z,1.60
2023-05-11T18:09:28.036Z,1.85
2023-05-11T18:14:30.998Z,1.60
2023-05-11T18:19:34.948Z,1.90
2023-05-11T18:24:37.636Z,1.50
2023-05-11T18:29:42.683Z,1.80
2023-05-11T18:34:46.717Z,1.60
2023-05-11T18:39:50.216Z,2.03
2023-05-11T18:44:54.276Z,2.08
2023-05-11T18:49:58.551Z,1.88
2023-05-11T18:55:01.254Z,1.63
2023-05-11T19:00:05.481Z,1.98
2023-05-11T19:05:10.949Z,2.20
2023-05-11T19:10:13.866Z,1.70
2023-05-11T19:15:16.591Z,1.75
2023-05-11T19:20:21.082Z,1.75
2023-05-11T19:25:23.969Z,1.67
2023-05-11T19:30:26.657Z,1.95
2023-05-11T19:35:30.727Z,2.20
2023-05-11T19:45:43.373Z,2.38
2023-05-11T19:50:47.414Z,2.10
2023-05-11T19:55:50.066Z,2.42
2023-05-11T20:00:52.718Z,1.90
2023-05-11T20:05:57.604Z,1.90
2023-05-11T20:11:00.303Z,2.00
2023-05-11T20:16:03.918Z,3.55
2023-05-11T20:21:08.053Z,3.00
2023-05-11T20:26:10.916Z,5.28
2023-05-11T20:31:13.626Z,2.20
2023-05-11T20:36:17.648Z,2.08
2023-05-11T20:41:20.309Z,2.00
2023-05-11T20:46:23.446Z,1.80
2023-05-11T20:51:27.642Z,2.20
2023-05-11T20:56:30.286Z,2.22
2023-05-11T21:01:33.009Z,1.92
2023-05-11T21:06:37.538Z,2.42
2023-05-11T21:11:40.773Z,2.08
2023-05-11T21:16:43.456Z,2.28
2023-05-11T21:21:49.474Z,2.13
2023-05-11T21:26:52.231Z,2.05
2023-05-11T21:31:55.588Z,2.13
2023-05-11T21:37:00.554Z,1.90
2023-05-11T21:42:03.524Z,2.45
2023-05-11T21:47:06.650Z,2.05
2023-05-11T21:52:10.734Z,2.33
2023-05-11T21:57:13.396Z,2.47
2023-05-11T22:02:16.094Z,2.80
2023-05-11T22:07:20.302Z,2.60
2023-05-11T22:12:22.946Z,2.80
2023-05-11T22:17:26.013Z,2.97
2023-05-11T22:22:30.008Z,2.95
2023-05-11T22:27:32.663Z,2.83
2023-05-11T22:32:36.114Z,2.25
2023-05-11T22:37:40.188Z,2.67
2023-05-11T22:42:42.914Z,2.47
2023-05-11T22:47:45.682Z,2.72
2023-05-11T22:52:49.650Z,2.70
2023-05-11T22:57:52.376Z,2.65
2023-05-11T23:02:55.076Z,2.53
2023-05-11T23:07:59.925Z,2.58
2023-05-11T23:13:04.785Z,2.88
2023-05-11T23:18:07.677Z,2.55
2023-05-11T23:23:11.787Z,2.60
2023-05-11T23:28:14.443Z,2.55
2023-05-11T23:33:17.189Z,2.70
2023-05-11T23:38:21.252Z,2.53
2023-05-11T23:43:24.116Z,2.60
2023-05-11T23:48:26.822Z,3.00
2023-05-11T23:53:30.967Z,3.05
2023-05-11T23:58:33.896Z,3.47
